CG Fir — NAYV — position and weather

sailwx.info

Track history (hours):
 
Tides and Currents Weather Stations Pressure Air Temp Water Temp Dewpoint Dewpoint Depression Visibility Wind Speed Wind Dir Waves Ship Positions

CG Fir

Last reported at 2018-Jun-23 05:04 UTC. Time now 2018-Jul-16 04:31 UTC.
Position N 32°34' W 117°31'.
Warning: this ship's position is 22 days out of date.

Length 68 m; draft 4 m.

Type: Law enforcement. MMSI: 369915000.

Date/timePositionNaut miles runAvg speedWind from/ knotsBaromVisibWave heightAir tempDewpointWater temp
2018-Jun-23 05:04N 32°34' W 117°31'113.1
2018-Jun-23 05:00N 32°35' W 117°30'611.3
2018-Jun-23 04:30N 32°37' W 117°24'1 0.1
2018-Jun-22 14:02N 32°37' W 117°23'110.1
2018-Jun-22 13:58N 32°37' W 117°24'4 9.1
2018-Jun-22 13:30N 32°37' W 117°29'5 9.4
2018-Jun-22 13:00N 32°37' W 117°34'611.8
2018-Jun-22 12:30N 32°39' W 117°41'611.7
2018-Jun-22 12:00N 32°42' W 117°47'611.7
2018-Jun-22 11:28N 32°48' W 117°50'511.2
2018-Jun-22 10:59N 32°52' W 117°54'511.3
2018-Jun-22 10:30N 32°57' W 117°56'611.5
2018-Jun-22 09:59N 33°02' W 117°58'2912.0
2018-Jun-22 07:37N 33°29' W 118°11'111.7
2018-Jun-22 07:30N 33°30' W 118°12'611.6
2018-Jun-22 07:00N 33°34' W 118°17'612.4
2018-Jun-22 06:29N 33°37' W 118°24'1412.2
2018-Jun-22 05:22N 33°44' W 118°38'412.0
2018-Jun-22 05:00N 33°46' W 118°43'612.3
2018-Jun-22 04:30N 33°49' W 118°49'612.3
2018-Jun-22 04:00N 33°52' W 118°55'612.0
2018-Jun-22 03:30N 33°55' W 119°02'612.1
2018-Jun-22 03:00N 33°58' W 119°08'611.4
2018-Jun-22 02:30N 34°01' W 119°14'611.3
2018-Jun-22 02:00N 34°03' W 119°20'612.1
2018-Jun-22 01:30N 34°05' W 119°27'611.3
2018-Jun-22 00:59N 34°06' W 119°34'611.6
2018-Jun-22 00:28N 34°08' W 119°41'712.8
2018-Jun-21 23:56N 34°10' W 119°49'613.3
2018-Jun-21 23:30N 34°11' W 119°56'612.4
2018-Jun-21 22:59N 34°13' W 120°03'713.0
2018-Jun-21 22:29N 34°14' W 120°11'613.0
2018-Jun-21 22:00N 34°16' W 120°18'612.7
2018-Jun-21 21:31N 34°18' W 120°25'612.8
2018-Jun-21 21:00N 34°19' W 120°33'612.2
2018-Jun-21 20:30N 34°21' W 120°40'612.1
2018-Jun-21 20:01N 34°23' W 120°47'612.0
2018-Jun-21 19:30N 34°25' W 120°54'713.4
2018-Jun-21 19:01N 34°31' W 120°58'713.4
2018-Jun-21 18:30N 34°36' W 121°03'713.2
2018-Jun-21 18:00N 34°42' W 121°08'713.1
2018-Jun-21 17:30N 34°47' W 121°12'612.9
2018-Jun-21 17:00N 34°52' W 121°16'713.2
2018-Jun-21 16:31N 34°58' W 121°21'713.2
2018-Jun-21 16:00N 35°03' W 121°25'713.1
2018-Jun-21 15:30N 35°09' W 121°30'713.2
2018-Jun-21 15:01N 35°14' W 121°35'713.0
2018-Jun-21 14:30N 35°19' W 121°39'613.0
2018-Jun-21 14:01N 35°25' W 121°44'612.7
2018-Jun-21 13:30N 35°30' W 121°48'612.7
2018-Jun-21 13:00N 35°35' W 121°53'612.5
2018-Jun-21 12:30N 35°40' W 121°57'612.5
2018-Jun-21 12:00N 35°46' W 122°01'612.2
2018-Jun-21 11:31N 35°51' W 122°05'612.0
2018-Jun-21 11:00N 35°55' W 122°10'612.1
2018-Jun-21 10:30N 35°60' W 122°15'612.1
2018-Jun-21 10:00N 36°04' W 122°20'612.0
2018-Jun-21 09:30N 36°09' W 122°25'611.9
2018-Jun-21 09:00N 36°13' W 122°30'1112.2
2018-Jun-21 08:04N 36°21' W 122°40'112.1
2018-Jun-21 08:00N 36°22' W 122°40'712.7
2018-Jun-21 07:28N 36°28' W 122°44'611.6
2018-Jun-21 06:55N 36°34' W 122°47'512.3
2018-Jun-21 06:28N 36°39' W 122°51'1012.2
2018-Jun-21 05:40N 36°47' W 122°56'412.2
2018-Jun-21 05:19N 36°51' W 122°59'412.3
2018-Jun-21 05:00N 36°55' W 123°01'612.8
2018-Jun-21 04:30N 37°00' W 123°05'1112.6
2018-Jun-21 03:36N 37°10' W 123°12'312.3
2018-Jun-21 03:19N 37°13' W 123°14'412.3
2018-Jun-21 03:00N 37°16' W 123°18'612.5
2018-Jun-21 02:30N 37°20' W 123°23'1314.5
2018-Jun-21 01:38N 37°30' W 123°34'715.0
2018-Jun-21 01:12N 37°35' W 123°39'1115.3
2018-Jun-21 00:27N 37°45' W 123°44'715.4
2018-Jun-21 00:00N 37°52' W 123°48'815.3
2018-Jun-20 23:31N 37°59' W 123°51'815.4
2018-Jun-20 23:01N 38°06' W 123°55'815.5
2018-Jun-20 22:30N 38°13' W 123°58'815.2
2018-Jun-20 22:00N 38°20' W 124°01'815.3
2018-Jun-20 21:30N 38°28' W 124°05'715.0
2018-Jun-20 21:00N 38°35' W 124°08'27514.5
2018-Jun-20 02:03N 43°06' W 125°08'114.8
2018-Jun-20 02:00N 43°07' W 125°08'815.0
2018-Jun-20 01:28N 43°15' W 125°06'814.6
2018-Jun-20 00:53N 43°23' W 125°04'915.0
2018-Jun-20 00:16N 43°32' W 124°60'414.8
2018-Jun-20 00:00N 43°36' W 124°58'814.9
2018-Jun-19 23:29N 43°43' W 124°54'714.8
2018-Jun-19 23:01N 43°49' W 124°50'714.6
2018-Jun-19 22:30N 43°56' W 124°46'714.9
2018-Jun-19 22:01N 44°03' W 124°44'1314.8
2018-Jun-19 21:09N 44°16' W 124°42'314.5
2018-Jun-19 20:55N 44°18' W 124°38'615.1
2018-Jun-19 20:30N 44°22' W 124°31'815.4
2018-Jun-19 20:00N 44°27' W 124°23'815.7
2018-Jun-19 19:30N 44°33' W 124°17'8 3.8
2018-Jun-19 17:29N 44°36' W 124°07'0 0.1
2018-Jun-19 17:00N 44°36' W 124°07'1 1.2
2018-Jun-19 16:06N 44°36' W 124°05'0 0.0
2018-Jun-19 16:00N 44°36' W 124°05'0 0.0
2018-Jun-19 15:14N 44°36' W 124°05'1 3.3
2018-Jun-19 14:56N 44°36' W 124°07'6 5.2
2018-Jun-19 13:42N 44°37' W 124°16'1 4.9
2018-Jun-19 13:30N 44°37' W 124°17'3 6.2
2018-Jun-19 13:00N 44°38' W 124°21'4 7.2
2018-Jun-19 12:30N 44°41' W 124°23'4 7.9
2018-Jun-19 12:00N 44°45' W 124°23'4 7.7
2018-Jun-19 11:28N 44°49' W 124°23'3 7.5
2018-Jun-19 11:00N 44°53' W 124°23'4 7.3
2018-Jun-19 10:30N 44°57' W 124°22'4 7.4
2018-Jun-19 10:00N 45°00' W 124°22'4 8.0
2018-Jun-19 09:30N 45°04' W 124°22'4 7.9
2018-Jun-19 09:00N 45°08' W 124°22'4 7.9
2018-Jun-19 08:30N 45°12' W 124°21'4 7.9
2018-Jun-19 08:00N 45°16' W 124°21'4 8.1
2018-Jun-19 07:30N 45°20' W 124°21'4 8.1
2018-Jun-19 07:00N 45°24' W 124°20'4 8.3
2018-Jun-19 06:30N 45°28' W 124°20'4 8.4
2018-Jun-19 06:00N 45°32' W 124°20'4 8.6
2018-Jun-19 05:31N 45°37' W 124°20'4 9.0
2018-Jun-19 05:01N 45°41' W 124°20'5 9.2
2018-Jun-19 04:30N 45°46' W 124°21'4 9.0
2018-Jun-19 04:00N 45°50' W 124°22'4 8.5
2018-Jun-19 03:30N 45°54' W 124°21'4 8.3
2018-Jun-19 03:00N 45°58' W 124°19'4 8.1
2018-Jun-19 02:30N 46°02' W 124°16'4 8.0
2018-Jun-19 02:00N 46°06' W 124°14'4 7.7
2018-Jun-19 01:30N 46°09' W 124°12'5 9.3
2018-Jun-19 01:00N 46°13' W 124°08'5 9.3
2018-Jun-19 00:30N 46°15' W 124°03'5 9.8
2018-Jun-19 00:00N 46°13' W 123°57'5 9.3
2018-Jun-18 23:30N 46°12' W 123°50'3 5.9
2018-Jun-18 23:00N 46°12' W 123°46'0 0.0
2018-Jun-17 01:47N 46°12' W 123°46'0 0.0
2018-Jun-17 01:27N 46°12' W 123°46'0 0.0
2018-Jun-17 00:59N 46°12' W 123°46'0 0.0
2018-Jun-17 00:29N 46°12' W 123°46'0 0.0
2018-Jun-16 23:59N 46°12' W 123°46'0 0.0
2018-Jun-16 23:29N 46°12' W 123°46'0 0.0
2018-Jun-16 22:59N 46°12' W 123°46'0 0.0
2018-Jun-16 22:29N 46°12' W 123°46'0 0.0
2018-Jun-16 21:59N 46°12' W 123°46'0 0.0
2018-Jun-16 21:27N 46°12' W 123°46'0 0.0
2018-Jun-16 21:00N 46°12' W 123°46'0 0.0
2018-Jun-16 20:30N 46°12' W 123°46'0 0.0
2018-Jun-16 20:00N 46°12' W 123°46'0 0.0
2018-Jun-16 19:26N 46°12' W 123°46'0 0.0
2018-Jun-16 19:00N 46°12' W 123°46'0 0.0
2018-Jun-16 18:30N 46°12' W 123°46'0 0.0
2018-Jun-16 18:00N 46°12' W 123°46'0 0.0
2018-Jun-16 17:30N 46°12' W 123°46'0 0.0
2018-Jun-16 17:00N 46°12' W 123°46'0 0.0
2018-Jun-16 16:30N 46°12' W 123°46'0 0.0
2018-Jun-16 15:59N 46°12' W 123°46'0 0.0
2018-Jun-16 15:29N 46°12' W 123°46'0 0.0
2018-Jun-16 14:59N 46°12' W 123°46'0 0.0
2018-Jun-16 14:29N 46°12' W 123°46'0 0.0
2018-Jun-16 13:57N 46°12' W 123°46'0 0.0
2018-Jun-16 13:29N 46°12' W 123°46'0 0.0
2018-Jun-16 12:59N 46°12' W 123°46'0 0.0
2018-Jun-16 12:29N 46°12' W 123°46'0 0.0
2018-Jun-16 11:59N 46°12' W 123°46'0 0.0
2018-Jun-16 11:29N 46°12' W 123°46'0 0.0
2018-Jun-16 10:59N 46°12' W 123°46'0 0.0
2018-Jun-16 10:29N 46°12' W 123°46'0 0.0
2018-Jun-16 10:00N 46°12' W 123°46'0 0.0
2018-Jun-16 09:24N 46°12' W 123°46'0 0.0
2018-Jun-16 09:00N 46°12' W 123°46'0 0.0
2018-Jun-16 08:30N 46°12' W 123°46'0 0.0
2018-Jun-16 08:00N 46°12' W 123°46'0 0.0
2018-Jun-16 07:30N 46°12' W 123°46'0 0.0
2018-Jun-16 06:57N 46°12' W 123°46'0 0.0
2018-Jun-16 06:30N 46°12' W 123°46'0 0.0
2018-Jun-16 06:00N 46°12' W 123°46'0 0.0
2018-Jun-16 05:29N 46°12' W 123°46'0 0.0
2018-Jun-16 04:59N 46°12' W 123°46'0 0.0
2018-Jun-16 04:27N 46°12' W 123°46'0 0.0
2018-Jun-16 03:53N 46°12' W 123°46'0 0.0
2018-Jun-16 03:29N 46°12' W 123°46'0 0.0
2018-Jun-16 02:59N 46°12' W 123°46'0 0.0
2018-Jun-16 02:29N 46°12' W 123°46'0 0.0
2018-Jun-16 01:53N 46°12' W 123°46'0 0.0
2018-Jun-16 01:29N 46°12' W 123°46'0 0.0
2018-Jun-16 01:00N 46°12' W 123°46'0 0.0
2018-Jun-16 00:30N 46°12' W 123°46'0 0.0
2018-Jun-16 00:00N 46°12' W 123°46'0 0.0
2018-Jun-15 23:30N 46°12' W 123°46'0 0.0
2018-Jun-15 23:00N 46°12' W 123°46'0 0.0
2018-Jun-15 22:30N 46°12' W 123°46'0 0.0
2018-Jun-15 22:00N 46°12' W 123°46'0 0.0
2018-Jun-15 21:30N 46°12' W 123°46'0 0.0
2018-Jun-15 20:59N 46°12' W 123°46'0 0.0
2018-Jun-15 20:29N 46°12' W 123°46'0 0.0
2018-Jun-15 19:57N 46°12' W 123°46'0 0.0
2018-Jun-15 19:29N 46°12' W 123°46'0 0.0
2018-Jun-15 18:59N 46°12' W 123°46'0 0.0
2018-Jun-15 18:29N 46°12' W 123°46'0 0.0
2018-Jun-15 17:57N 46°12' W 123°46'0 0.0
2018-Jun-15 17:27N 46°12' W 123°46'0 0.0
2018-Jun-15 16:59N 46°12' W 123°46'0 0.0
2018-Jun-15 16:30N 46°12' W 123°46'0 0.0
2018-Jun-15 15:50N 46°12' W 123°46'0 0.0
2018-Jun-15 15:30N 46°12' W 123°46'0 0.0
2018-Jun-15 15:00N 46°12' W 123°46'0 0.0
2018-Jun-15 14:30N 46°12' W 123°46'0 0.0
2018-Jun-15 14:00N 46°12' W 123°46'0 0.0
2018-Jun-15 13:30N 46°12' W 123°46'0 0.0
2018-Jun-15 13:00N 46°12' W 123°46'0 0.0
2018-Jun-15 12:30N 46°12' W 123°46'0 0.0
2018-Jun-15 11:48N 46°12' W 123°46'0 0.0
2018-Jun-15 11:30N 46°12' W 123°46'0 0.0
2018-Jun-15 10:59N 46°12' W 123°46'0 0.0
2018-Jun-15 10:27N 46°12' W 123°46'0 0.0
2018-Jun-15 09:35N 46°12' W 123°46'0 0.0
2018-Jun-15 09:29N 46°12' W 123°46'0 0.0
2018-Jun-15 08:57N 46°12' W 123°46'0 0.0
2018-Jun-15 08:29N 46°12' W 123°46'0 0.0
2018-Jun-15 07:59N 46°12' W 123°46'0 0.0
2018-Jun-15 06:59N 46°12' W 123°46'0 0.0
2018-Jun-15 06:30N 46°12' W 123°46'0 0.0
2018-Jun-15 06:00N 46°12' W 123°46'0 0.0
2018-Jun-15 05:30N 46°12' W 123°46'0 0.0
2018-Jun-15 04:57N 46°12' W 123°46'0 0.0
2018-Jun-15 04:27N 46°12' W 123°46'0 0.0
2018-Jun-15 04:00N 46°12' W 123°46'0 0.0
2018-Jun-15 03:03N 46°12' W 123°46'0 0.0
2018-Jun-15 03:00N 46°12' W 123°46'0 0.0
2018-Jun-15 02:29N 46°12' W 123°46'0 0.0
2018-Jun-15 01:59N 46°12' W 123°46'0 0.0
2018-Jun-15 01:21N 46°12' W 123°46'0 0.0
2018-Jun-15 00:59N 46°12' W 123°46'0 0.0
2018-Jun-15 00:29N 46°12' W 123°46'0 0.0
2018-Jun-14 23:59N 46°12' W 123°46'0 0.0
2018-Jun-14 23:26N 46°12' W 123°46'0 0.0
2018-Jun-14 22:59N 46°12' W 123°46'0 0.0
2018-Jun-14 22:30N 46°12' W 123°46'0 0.0
2018-Jun-14 22:00N 46°12' W 123°46'0 0.0
2018-Jun-14 21:30N 46°12' W 123°46'0 0.0
2018-Jun-14 20:56N 46°12' W 123°46'0 0.0
2018-Jun-14 20:30N 46°12' W 123°46'0 0.0
2018-Jun-14 20:00N 46°12' W 123°46'0 0.0
2018-Jun-14 19:30N 46°12' W 123°46'0 0.0
2018-Jun-14 19:00N 46°12' W 123°46'0 0.0
2018-Jun-14 18:30N 46°12' W 123°46'0 0.0
2018-Jun-14 18:00N 46°12' W 123°46'0 0.0
2018-Jun-14 17:30N 46°12' W 123°46'0 0.0
2018-Jun-14 17:00N 46°12' W 123°46'0 0.0
2018-Jun-14 16:30N 46°12' W 123°46'0 0.0
2018-Jun-14 16:00N 46°12' W 123°46'0 0.0
2018-Jun-14 15:29N 46°12' W 123°46'0 0.0
2018-Jun-14 14:59N 46°12' W 123°46'0 0.0
2018-Jun-14 14:21N 46°12' W 123°46'0 0.0
2018-Jun-14 13:59N 46°12' W 123°46'0 0.0
2018-Jun-14 13:30N 46°12' W 123°46'0 0.0
2018-Jun-14 13:00N 46°12' W 123°46'0 0.0
2018-Jun-14 12:30N 46°12' W 123°46'0 0.0
2018-Jun-14 12:00N 46°12' W 123°46'0 0.0
2018-Jun-14 11:30N 46°12' W 123°46'0 0.0
2018-Jun-14 11:00N 46°12' W 123°46'0 0.0
2018-Jun-14 10:30N 46°12' W 123°46'0 0.0
2018-Jun-14 10:00N 46°12' W 123°46'0 0.0
2018-Jun-14 09:30N 46°12' W 123°46'0 0.0
2018-Jun-14 08:59N 46°12' W 123°46'0 0.0
2018-Jun-14 08:29N 46°12' W 123°46'0 0.0
2018-Jun-14 07:59N 46°12' W 123°46'0 0.0
2018-Jun-14 07:27N 46°12' W 123°46'0 0.0
2018-Jun-14 06:59N 46°12' W 123°46'0 0.0
2018-Jun-14 06:27N 46°12' W 123°46'0 0.0
2018-Jun-14 06:00N 46°12' W 123°46'0 0.0
2018-Jun-14 05:21N 46°12' W 123°46'0 0.0
2018-Jun-14 05:00N 46°12' W 123°46'0 0.0
2018-Jun-14 04:30N 46°12' W 123°46'0 0.0
2018-Jun-14 04:00N 46°12' W 123°46'0 0.0
2018-Jun-14 03:00N 46°12' W 123°46'0 0.0
2018-Jun-14 02:30N 46°12' W 123°46'0 0.0
2018-Jun-14 02:00N 46°12' W 123°46'0 0.0
2018-Jun-14 01:30N 46°12' W 123°46'0 0.0
2018-Jun-14 00:56N 46°12' W 123°46'0 0.0
2018-Jun-14 00:29N 46°12' W 123°46'0 0.0
2018-Jun-13 23:57N 46°12' W 123°46'0 0.0
2018-Jun-13 23:29N 46°12' W 123°46'0 0.0
2018-Jun-13 22:57N 46°12' W 123°46'0 0.0
2018-Jun-13 22:29N 46°12' W 123°46'0 0.0
2018-Jun-13 22:00N 46°12' W 123°46'0 0.0
2018-Jun-13 21:29N 46°12' W 123°46'0 0.0
2018-Jun-13 20:59N 46°12' W 123°46'0 0.0
2018-Jun-13 20:29N 46°12' W 123°46'0 0.0
2018-Jun-13 19:57N 46°12' W 123°46'0 0.0
2018-Jun-13 19:30N 46°12' W 123°46'0 0.0
2018-Jun-13 19:00N 46°12' W 123°46'0 0.0
2018-Jun-13 18:30N 46°12' W 123°46'0 0.0
2018-Jun-13 18:00N 46°12' W 123°46'0 0.0
2018-Jun-13 17:30N 46°12' W 123°46'0 0.0
2018-Jun-13 16:50N 46°12' W 123°46'0 0.0
2018-Jun-13 16:30N 46°12' W 123°46'0 0.0
2018-Jun-13 16:00N 46°12' W 123°46'0 0.0
2018-Jun-13 15:30N 46°12' W 123°46'0 0.0
2018-Jun-13 14:59N 46°12' W 123°46'0 0.0
2018-Jun-13 14:29N 46°12' W 123°46'0 0.0
2018-Jun-13 13:59N 46°12' W 123°46'0 0.0
2018-Jun-13 13:29N 46°12' W 123°46'0 0.0
2018-Jun-13 13:00N 46°12' W 123°46'0 0.0
2018-Jun-13 12:30N 46°12' W 123°46'0 0.0
2018-Jun-13 12:00N 46°12' W 123°46'0 0.0
2018-Jun-13 11:27N 46°12' W 123°46'0 0.0
2018-Jun-13 11:00N 46°12' W 123°46'0 0.0
2018-Jun-13 10:30N 46°12' W 123°46'0 0.0
2018-Jun-13 10:00N 46°12' W 123°46'0 0.0
2018-Jun-13 09:30N 46°12' W 123°46'0 0.0
2018-Jun-13 09:00N 46°12' W 123°46'0 0.0
2018-Jun-13 08:30N 46°12' W 123°46'0 0.0
2018-Jun-13 08:00N 46°12' W 123°46'0 0.0
2018-Jun-13 07:30N 46°12' W 123°46'0 0.0
2018-Jun-13 06:56N 46°12' W 123°46'0 0.0
2018-Jun-13 06:11N 46°12' W 123°46'0 0.0
2018-Jun-13 05:59N 46°12' W 123°46'0 0.0
2018-Jun-13 05:29N 46°12' W 123°46'  
Track history (hours):
 
Tides and Currents Weather Stations Pressure Air Temp Water Temp Dewpoint Dewpoint Depression Visibility Wind Speed Wind Dir Waves Ship Positions

CG Fir

Last reported at 2018-Jun-23 05:04 UTC. Time now 2018-Jul-16 04:31 UTC.
Position N 32°34' W 117°31'.
Warning: this ship's position is 22 days out of date.

Length 68 m; draft 4 m.

Type: Law enforcement. MMSI: 369915000.

Date/timePositionNaut miles runAvg speedWind from/ knotsBaromVisibWave heightAir tempDewpointWater temp
2018-Jun-23 05:04N 32°34' W 117°31'113.1
2018-Jun-23 05:00N 32°35' W 117°30'611.3
2018-Jun-23 04:30N 32°37' W 117°24'1 0.1
2018-Jun-22 14:02N 32°37' W 117°23'110.1
2018-Jun-22 13:58N 32°37' W 117°24'4 9.1
2018-Jun-22 13:30N 32°37' W 117°29'5 9.4
2018-Jun-22 13:00N 32°37' W 117°34'611.8
2018-Jun-22 12:30N 32°39' W 117°41'611.7
2018-Jun-22 12:00N 32°42' W 117°47'611.7
2018-Jun-22 11:28N 32°48' W 117°50'511.2
2018-Jun-22 10:59N 32°52' W 117°54'511.3
2018-Jun-22 10:30N 32°57' W 117°56'611.5
2018-Jun-22 09:59N 33°02' W 117°58'2912.0
2018-Jun-22 07:37N 33°29' W 118°11'111.7
2018-Jun-22 07:30N 33°30' W 118°12'611.6
2018-Jun-22 07:00N 33°34' W 118°17'612.4
2018-Jun-22 06:29N 33°37' W 118°24'1412.2
2018-Jun-22 05:22N 33°44' W 118°38'412.0
2018-Jun-22 05:00N 33°46' W 118°43'612.3
2018-Jun-22 04:30N 33°49' W 118°49'612.3
2018-Jun-22 04:00N 33°52' W 118°55'612.0
2018-Jun-22 03:30N 33°55' W 119°02'612.1
2018-Jun-22 03:00N 33°58' W 119°08'611.4
2018-Jun-22 02:30N 34°01' W 119°14'611.3
2018-Jun-22 02:00N 34°03' W 119°20'612.1
2018-Jun-22 01:30N 34°05' W 119°27'611.3
2018-Jun-22 00:59N 34°06' W 119°34'611.6
2018-Jun-22 00:28N 34°08' W 119°41'712.8
2018-Jun-21 23:56N 34°10' W 119°49'613.3
2018-Jun-21 23:30N 34°11' W 119°56'612.4
2018-Jun-21 22:59N 34°13' W 120°03'713.0
2018-Jun-21 22:29N 34°14' W 120°11'613.0
2018-Jun-21 22:00N 34°16' W 120°18'612.7
2018-Jun-21 21:31N 34°18' W 120°25'612.8
2018-Jun-21 21:00N 34°19' W 120°33'612.2
2018-Jun-21 20:30N 34°21' W 120°40'612.1
2018-Jun-21 20:01N 34°23' W 120°47'612.0
2018-Jun-21 19:30N 34°25' W 120°54'713.4
2018-Jun-21 19:01N 34°31' W 120°58'713.4
2018-Jun-21 18:30N 34°36' W 121°03'713.2
2018-Jun-21 18:00N 34°42' W 121°08'713.1
2018-Jun-21 17:30N 34°47' W 121°12'612.9
2018-Jun-21 17:00N 34°52' W 121°16'713.2
2018-Jun-21 16:31N 34°58' W 121°21'713.2
2018-Jun-21 16:00N 35°03' W 121°25'713.1
2018-Jun-21 15:30N 35°09' W 121°30'713.2
2018-Jun-21 15:01N 35°14' W 121°35'713.0
2018-Jun-21 14:30N 35°19' W 121°39'613.0
2018-Jun-21 14:01N 35°25' W 121°44'612.7
2018-Jun-21 13:30N 35°30' W 121°48'612.7
2018-Jun-21 13:00N 35°35' W 121°53'612.5
2018-Jun-21 12:30N 35°40' W 121°57'612.5
2018-Jun-21 12:00N 35°46' W 122°01'612.2
2018-Jun-21 11:31N 35°51' W 122°05'612.0
2018-Jun-21 11:00N 35°55' W 122°10'612.1
2018-Jun-21 10:30N 35°60' W 122°15'612.1
2018-Jun-21 10:00N 36°04' W 122°20'612.0
2018-Jun-21 09:30N 36°09' W 122°25'611.9
2018-Jun-21 09:00N 36°13' W 122°30'1112.2
2018-Jun-21 08:04N 36°21' W 122°40'112.1
2018-Jun-21 08:00N 36°22' W 122°40'712.7
2018-Jun-21 07:28N 36°28' W 122°44'611.6
2018-Jun-21 06:55N 36°34' W 122°47'512.3
2018-Jun-21 06:28N 36°39' W 122°51'1012.2
2018-Jun-21 05:40N 36°47' W 122°56'412.2
2018-Jun-21 05:19N 36°51' W 122°59'412.3
2018-Jun-21 05:00N 36°55' W 123°01'612.8
2018-Jun-21 04:30N 37°00' W 123°05'1112.6
2018-Jun-21 03:36N 37°10' W 123°12'312.3
2018-Jun-21 03:19N 37°13' W 123°14'412.3
2018-Jun-21 03:00N 37°16' W 123°18'612.5
2018-Jun-21 02:30N 37°20' W 123°23'1314.5
2018-Jun-21 01:38N 37°30' W 123°34'715.0
2018-Jun-21 01:12N 37°35' W 123°39'1115.3
2018-Jun-21 00:27N 37°45' W 123°44'715.4
2018-Jun-21 00:00N 37°52' W 123°48'815.3
2018-Jun-20 23:31N 37°59' W 123°51'815.4
2018-Jun-20 23:01N 38°06' W 123°55'815.5
2018-Jun-20 22:30N 38°13' W 123°58'815.2
2018-Jun-20 22:00N 38°20' W 124°01'815.3
2018-Jun-20 21:30N 38°28' W 124°05'715.0
2018-Jun-20 21:00N 38°35' W 124°08'27514.5
2018-Jun-20 02:03N 43°06' W 125°08'114.8
2018-Jun-20 02:00N 43°07' W 125°08'815.0
2018-Jun-20 01:28N 43°15' W 125°06'814.6
2018-Jun-20 00:53N 43°23' W 125°04'915.0
2018-Jun-20 00:16N 43°32' W 124°60'414.8
2018-Jun-20 00:00N 43°36' W 124°58'814.9
2018-Jun-19 23:29N 43°43' W 124°54'714.8
2018-Jun-19 23:01N 43°49' W 124°50'714.6
2018-Jun-19 22:30N 43°56' W 124°46'714.9
2018-Jun-19 22:01N 44°03' W 124°44'1314.8
2018-Jun-19 21:09N 44°16' W 124°42'314.5
2018-Jun-19 20:55N 44°18' W 124°38'615.1
2018-Jun-19 20:30N 44°22' W 124°31'815.4
2018-Jun-19 20:00N 44°27' W 124°23'815.7
2018-Jun-19 19:30N 44°33' W 124°17'8 3.8
2018-Jun-19 17:29N 44°36' W 124°07'0 0.1
2018-Jun-19 17:00N 44°36' W 124°07'1 1.2
2018-Jun-19 16:06N 44°36' W 124°05'0 0.0
2018-Jun-19 16:00N 44°36' W 124°05'0 0.0
2018-Jun-19 15:14N 44°36' W 124°05'1 3.3
2018-Jun-19 14:56N 44°36' W 124°07'6 5.2
2018-Jun-19 13:42N 44°37' W 124°16'1 4.9
2018-Jun-19 13:30N 44°37' W 124°17'3 6.2
2018-Jun-19 13:00N 44°38' W 124°21'4 7.2
2018-Jun-19 12:30N 44°41' W 124°23'4 7.9
2018-Jun-19 12:00N 44°45' W 124°23'4 7.7
2018-Jun-19 11:28N 44°49' W 124°23'3 7.5
2018-Jun-19 11:00N 44°53' W 124°23'4 7.3
2018-Jun-19 10:30N 44°57' W 124°22'4 7.4
2018-Jun-19 10:00N 45°00' W 124°22'4 8.0
2018-Jun-19 09:30N 45°04' W 124°22'4 7.9
2018-Jun-19 09:00N 45°08' W 124°22'4 7.9
2018-Jun-19 08:30N 45°12' W 124°21'4 7.9
2018-Jun-19 08:00N 45°16' W 124°21'4 8.1
2018-Jun-19 07:30N 45°20' W 124°21'4 8.1
2018-Jun-19 07:00N 45°24' W 124°20'4 8.3
2018-Jun-19 06:30N 45°28' W 124°20'4 8.4
2018-Jun-19 06:00N 45°32' W 124°20'4 8.6
2018-Jun-19 05:31N 45°37' W 124°20'4 9.0
2018-Jun-19 05:01N 45°41' W 124°20'5 9.2
2018-Jun-19 04:30N 45°46' W 124°21'4 9.0
2018-Jun-19 04:00N 45°50' W 124°22'4 8.5
2018-Jun-19 03:30N 45°54' W 124°21'4 8.3
2018-Jun-19 03:00N 45°58' W 124°19'4 8.1
2018-Jun-19 02:30N 46°02' W 124°16'4 8.0
2018-Jun-19 02:00N 46°06' W 124°14'4 7.7
2018-Jun-19 01:30N 46°09' W 124°12'5 9.3
2018-Jun-19 01:00N 46°13' W 124°08'5 9.3
2018-Jun-19 00:30N 46°15' W 124°03'5 9.8
2018-Jun-19 00:00N 46°13' W 123°57'5 9.3
2018-Jun-18 23:30N 46°12' W 123°50'3 5.9
2018-Jun-18 23:00N 46°12' W 123°46'0 0.0
2018-Jun-17 01:47N 46°12' W 123°46'0 0.0
2018-Jun-17 01:27N 46°12' W 123°46'0 0.0
2018-Jun-17 00:59N 46°12' W 123°46'0 0.0
2018-Jun-17 00:29N 46°12' W 123°46'0 0.0
2018-Jun-16 23:59N 46°12' W 123°46'0 0.0
2018-Jun-16 23:29N 46°12' W 123°46'0 0.0
2018-Jun-16 22:59N 46°12' W 123°46'0 0.0
2018-Jun-16 22:29N 46°12' W 123°46'0 0.0
2018-Jun-16 21:59N 46°12' W 123°46'0 0.0
2018-Jun-16 21:27N 46°12' W 123°46'0 0.0
2018-Jun-16 21:00N 46°12' W 123°46'0 0.0
2018-Jun-16 20:30N 46°12' W 123°46'0 0.0
2018-Jun-16 20:00N 46°12' W 123°46'0 0.0
2018-Jun-16 19:26N 46°12' W 123°46'0 0.0
2018-Jun-16 19:00N 46°12' W 123°46'0 0.0
2018-Jun-16 18:30N 46°12' W 123°46'0 0.0
2018-Jun-16 18:00N 46°12' W 123°46'0 0.0
2018-Jun-16 17:30N 46°12' W 123°46'0 0.0
2018-Jun-16 17:00N 46°12' W 123°46'0 0.0
2018-Jun-16 16:30N 46°12' W 123°46'0 0.0
2018-Jun-16 15:59N 46°12' W 123°46'0 0.0
2018-Jun-16 15:29N 46°12' W 123°46'0 0.0
2018-Jun-16 14:59N 46°12' W 123°46'0 0.0
2018-Jun-16 14:29N 46°12' W 123°46'0 0.0
2018-Jun-16 13:57N 46°12' W 123°46'0 0.0
2018-Jun-16 13:29N 46°12' W 123°46'0 0.0
2018-Jun-16 12:59N 46°12' W 123°46'0 0.0
2018-Jun-16 12:29N 46°12' W 123°46'0 0.0
2018-Jun-16 11:59N 46°12' W 123°46'0 0.0
2018-Jun-16 11:29N 46°12' W 123°46'0 0.0
2018-Jun-16 10:59N 46°12' W 123°46'0 0.0
2018-Jun-16 10:29N 46°12' W 123°46'0 0.0
2018-Jun-16 10:00N 46°12' W 123°46'0 0.0
2018-Jun-16 09:24N 46°12' W 123°46'0 0.0
2018-Jun-16 09:00N 46°12' W 123°46'0 0.0
2018-Jun-16 08:30N 46°12' W 123°46'0 0.0
2018-Jun-16 08:00N 46°12' W 123°46'0 0.0
2018-Jun-16 07:30N 46°12' W 123°46'0 0.0
2018-Jun-16 06:57N 46°12' W 123°46'0 0.0
2018-Jun-16 06:30N 46°12' W 123°46'0 0.0
2018-Jun-16 06:00N 46°12' W 123°46'0 0.0
2018-Jun-16 05:29N 46°12' W 123°46'0 0.0
2018-Jun-16 04:59N 46°12' W 123°46'0 0.0
2018-Jun-16 04:27N 46°12' W 123°46'0 0.0
2018-Jun-16 03:53N 46°12' W 123°46'0 0.0
2018-Jun-16 03:29N 46°12' W 123°46'0 0.0
2018-Jun-16 02:59N 46°12' W 123°46'0 0.0
2018-Jun-16 02:29N 46°12' W 123°46'0 0.0
2018-Jun-16 01:53N 46°12' W 123°46'0 0.0
2018-Jun-16 01:29N 46°12' W 123°46'0 0.0
2018-Jun-16 01:00N 46°12' W 123°46'0 0.0
2018-Jun-16 00:30N 46°12' W 123°46'0 0.0
2018-Jun-16 00:00N 46°12' W 123°46'0 0.0
2018-Jun-15 23:30N 46°12' W 123°46'0 0.0
2018-Jun-15 23:00N 46°12' W 123°46'0 0.0
2018-Jun-15 22:30N 46°12' W 123°46'0 0.0
2018-Jun-15 22:00N 46°12' W 123°46'0 0.0
2018-Jun-15 21:30N 46°12' W 123°46'0 0.0
2018-Jun-15 20:59N 46°12' W 123°46'0 0.0
2018-Jun-15 20:29N 46°12' W 123°46'0 0.0
2018-Jun-15 19:57N 46°12' W 123°46'0 0.0
2018-Jun-15 19:29N 46°12' W 123°46'0 0.0
2018-Jun-15 18:59N 46°12' W 123°46'0 0.0
2018-Jun-15 18:29N 46°12' W 123°46'0 0.0
2018-Jun-15 17:57N 46°12' W 123°46'0 0.0
2018-Jun-15 17:27N 46°12' W 123°46'0 0.0
2018-Jun-15 16:59N 46°12' W 123°46'0 0.0
2018-Jun-15 16:30N 46°12' W 123°46'0 0.0
2018-Jun-15 15:50N 46°12' W 123°46'0 0.0
2018-Jun-15 15:30N 46°12' W 123°46'0 0.0
2018-Jun-15 15:00N 46°12' W 123°46'0 0.0
2018-Jun-15 14:30N 46°12' W 123°46'0 0.0
2018-Jun-15 14:00N 46°12' W 123°46'0 0.0
2018-Jun-15 13:30N 46°12' W 123°46'0 0.0
2018-Jun-15 13:00N 46°12' W 123°46'0 0.0
2018-Jun-15 12:30N 46°12' W 123°46'0 0.0
2018-Jun-15 11:48N 46°12' W 123°46'0 0.0
2018-Jun-15 11:30N 46°12' W 123°46'0 0.0
2018-Jun-15 10:59N 46°12' W 123°46'0 0.0
2018-Jun-15 10:27N 46°12' W 123°46'0 0.0
2018-Jun-15 09:35N 46°12' W 123°46'0 0.0
2018-Jun-15 09:29N 46°12' W 123°46'0 0.0
2018-Jun-15 08:57N 46°12' W 123°46'0 0.0
2018-Jun-15 08:29N 46°12' W 123°46'0 0.0
2018-Jun-15 07:59N 46°12' W 123°46'0 0.0
2018-Jun-15 06:59N 46°12' W 123°46'0 0.0
2018-Jun-15 06:30N 46°12' W 123°46'0 0.0
2018-Jun-15 06:00N 46°12' W 123°46'0 0.0
2018-Jun-15 05:30N 46°12' W 123°46'0 0.0
2018-Jun-15 04:57N 46°12' W 123°46'0 0.0
2018-Jun-15 04:27N 46°12' W 123°46'0 0.0
2018-Jun-15 04:00N 46°12' W 123°46'0 0.0
2018-Jun-15 03:03N 46°12' W 123°46'0 0.0
2018-Jun-15 03:00N 46°12' W 123°46'0 0.0
2018-Jun-15 02:29N 46°12' W 123°46'0 0.0
2018-Jun-15 01:59N 46°12' W 123°46'0 0.0
2018-Jun-15 01:21N 46°12' W 123°46'0 0.0
2018-Jun-15 00:59N 46°12' W 123°46'0 0.0
2018-Jun-15 00:29N 46°12' W 123°46'0 0.0
2018-Jun-14 23:59N 46°12' W 123°46'0 0.0
2018-Jun-14 23:26N 46°12' W 123°46'0 0.0
2018-Jun-14 22:59N 46°12' W 123°46'0 0.0
2018-Jun-14 22:30N 46°12' W 123°46'0 0.0
2018-Jun-14 22:00N 46°12' W 123°46'0 0.0
2018-Jun-14 21:30N 46°12' W 123°46'0 0.0
2018-Jun-14 20:56N 46°12' W 123°46'0 0.0
2018-Jun-14 20:30N 46°12' W 123°46'0 0.0
2018-Jun-14 20:00N 46°12' W 123°46'0 0.0
2018-Jun-14 19:30N 46°12' W 123°46'0 0.0
2018-Jun-14 19:00N 46°12' W 123°46'0 0.0
2018-Jun-14 18:30N 46°12' W 123°46'0 0.0
2018-Jun-14 18:00N 46°12' W 123°46'0 0.0
2018-Jun-14 17:30N 46°12' W 123°46'0 0.0
2018-Jun-14 17:00N 46°12' W 123°46'0 0.0
2018-Jun-14 16:30N 46°12' W 123°46'0 0.0
2018-Jun-14 16:00N 46°12' W 123°46'0 0.0
2018-Jun-14 15:29N 46°12' W 123°46'0 0.0
2018-Jun-14 14:59N 46°12' W 123°46'0 0.0
2018-Jun-14 14:21N 46°12' W 123°46'0 0.0
2018-Jun-14 13:59N 46°12' W 123°46'0 0.0
2018-Jun-14 13:30N 46°12' W 123°46'0 0.0
2018-Jun-14 13:00N 46°12' W 123°46'0 0.0
2018-Jun-14 12:30N 46°12' W 123°46'0 0.0
2018-Jun-14 12:00N 46°12' W 123°46'0 0.0
2018-Jun-14 11:30N 46°12' W 123°46'0 0.0
2018-Jun-14 11:00N 46°12' W 123°46'0 0.0
2018-Jun-14 10:30N 46°12' W 123°46'0 0.0
2018-Jun-14 10:00N 46°12' W 123°46'0 0.0
2018-Jun-14 09:30N 46°12' W 123°46'0 0.0
2018-Jun-14 08:59N 46°12' W 123°46'0 0.0
2018-Jun-14 08:29N 46°12' W 123°46'0 0.0
2018-Jun-14 07:59N 46°12' W 123°46'0 0.0
2018-Jun-14 07:27N 46°12' W 123°46'0 0.0
2018-Jun-14 06:59N 46°12' W 123°46'0 0.0
2018-Jun-14 06:27N 46°12' W 123°46'0 0.0
2018-Jun-14 06:00N 46°12' W 123°46'0 0.0
2018-Jun-14 05:21N 46°12' W 123°46'0 0.0
2018-Jun-14 05:00N 46°12' W 123°46'0 0.0
2018-Jun-14 04:30N 46°12' W 123°46'0 0.0
2018-Jun-14 04:00N 46°12' W 123°46'0 0.0
2018-Jun-14 03:00N 46°12' W 123°46'0 0.0
2018-Jun-14 02:30N 46°12' W 123°46'0 0.0
2018-Jun-14 02:00N 46°12' W 123°46'0 0.0
2018-Jun-14 01:30N 46°12' W 123°46'0 0.0
2018-Jun-14 00:56N 46°12' W 123°46'0 0.0
2018-Jun-14 00:29N 46°12' W 123°46'0 0.0
2018-Jun-13 23:57N 46°12' W 123°46'0 0.0
2018-Jun-13 23:29N 46°12' W 123°46'0 0.0
2018-Jun-13 22:57N 46°12' W 123°46'0 0.0
2018-Jun-13 22:29N 46°12' W 123°46'0 0.0
2018-Jun-13 22:00N 46°12' W 123°46'0 0.0
2018-Jun-13 21:29N 46°12' W 123°46'0 0.0
2018-Jun-13 20:59N 46°12' W 123°46'0 0.0
2018-Jun-13 20:29N 46°12' W 123°46'0 0.0
2018-Jun-13 19:57N 46°12' W 123°46'0 0.0
2018-Jun-13 19:30N 46°12' W 123°46'0 0.0
2018-Jun-13 19:00N 46°12' W 123°46'0 0.0
2018-Jun-13 18:30N 46°12' W 123°46'0 0.0
2018-Jun-13 18:00N 46°12' W 123°46'0 0.0
2018-Jun-13 17:30N 46°12' W 123°46'0 0.0
2018-Jun-13 16:50N 46°12' W 123°46'0 0.0
2018-Jun-13 16:30N 46°12' W 123°46'0 0.0
2018-Jun-13 16:00N 46°12' W 123°46'0 0.0
2018-Jun-13 15:30N 46°12' W 123°46'0 0.0
2018-Jun-13 14:59N 46°12' W 123°46'0 0.0
2018-Jun-13 14:29N 46°12' W 123°46'0 0.0
2018-Jun-13 13:59N 46°12' W 123°46'0 0.0
2018-Jun-13 13:29N 46°12' W 123°46'0 0.0
2018-Jun-13 13:00N 46°12' W 123°46'0 0.0
2018-Jun-13 12:30N 46°12' W 123°46'0 0.0
2018-Jun-13 12:00N 46°12' W 123°46'0 0.0
2018-Jun-13 11:27N 46°12' W 123°46'0 0.0
2018-Jun-13 11:00N 46°12' W 123°46'0 0.0
2018-Jun-13 10:30N 46°12' W 123°46'0 0.0
2018-Jun-13 10:00N 46°12' W 123°46'0 0.0
2018-Jun-13 09:30N 46°12' W 123°46'0 0.0
2018-Jun-13 09:00N 46°12' W 123°46'0 0.0
2018-Jun-13 08:30N 46°12' W 123°46'0 0.0
2018-Jun-13 08:00N 46°12' W 123°46'0 0.0
2018-Jun-13 07:30N 46°12' W 123°46'0 0.0
2018-Jun-13 06:56N 46°12' W 123°46'0 0.0
2018-Jun-13 06:11N 46°12' W 123°46'0 0.0
2018-Jun-13 05:59N 46°12' W 123°46'0 0.0
2018-Jun-13 05:29N 46°12' W 123°46'  

Dump ship's entire track history